Time;durP1;ratioP1;P1;durP2;ratioP2;P2;SDS_P1;SDS_P2;PMS_P1;PMS_P2;Temp;Humidity;BMP_temperature;BMP_pressure;BME280_temperature;BME280_humidity;BME280_pressure;Samples;Min_cycle;Max_cycle;Signal;HPM_P1;HPM_P2
2022/03/02 00:01:04;;;;;;;58.07;29.70;;;;;;;;;;749878;184;651197;-66
2022/03/02 00:03:30;;;;;;;60.77;28.40;;;;;;;;;;763564;183;626145;-68
2022/03/02 00:05:56;;;;;;;54.03;29.40;;;;;;;;;;752093;183;627768;-68
2022/03/02 00:08:22;;;;;;;58.37;28.00;;;;;;;;;;757053;184;634848;-68
2022/03/02 00:10:55;;;;;;;58.03;25.63;;;;;;;;;;759062;184;619249;-67
2022/03/02 00:13:21;;;;;;;56.23;27.83;;;;;;;;;;751723;184;631030;-68
2022/03/02 00:15:48;;;;;;;56.27;28.80;;;;;;;;;;752020;184;646404;-68
2022/03/02 00:18:13;;;;;;;55.45;29.00;;;;;;;;;;758629;184;634984;-67
2022/03/02 00:20:39;;;;;;;53.30;26.00;;;;;;;;;;748163;183;621978;-68
2022/03/02 00:23:04;;;;;;;60.43;27.63;;;;;;;;;;749802;183;634348;-67
2022/03/02 00:25:30;;;;;;;49.80;27.00;;;;;;;;;;752231;183;642611;-68
2022/03/02 00:27:56;;;;;;;52.57;30.53;;;;;;;;;;757466;183;616995;-68
2022/03/02 00:30:23;;;;;;;66.40;30.57;;;;;;;;;;752944;183;626070;-68
2022/03/02 00:32:48;;;;;;;63.70;31.37;;;;;;;;;;754149;184;634861;-68
2022/03/02 00:35:14;;;;;;;59.17;31.57;;;;;;;;;;753937;184;618248;-68
2022/03/02 00:37:39;;;;;;;56.77;29.80;;;;;;;;;;748973;185;708351;-68
2022/03/02 00:40:05;;;;;;;68.78;32.28;;;;;;;;;;757605;184;616518;-68
2022/03/02 00:42:31;;;;;;;58.73;30.93;;;;;;;;;;761822;183;639877;-69
2022/03/02 00:44:57;;;;;;;70.13;32.20;;;;;;;;;;748482;184;626452;-68
2022/03/02 00:47:23;;;;;;;70.20;33.50;;;;;;;;;;749134;183;628792;-68
2022/03/02 00:49:49;;;;;;;65.47;33.37;;;;;;;;;;751591;184;626725;-68
2022/03/02 00:52:15;;;;;;;61.77;31.93;;;;;;;;;;756602;183;657142;-68
2022/03/02 00:54:40;;;;;;;56.90;32.83;;;;;;;;;;762606;183;629926;-68
2022/03/02 00:57:06;;;;;;;51.87;27.87;;;;;;;;;;759045;184;626619;-68
2022/03/02 00:59:32;;;;;;;63.50;32.07;;;;;;;;;;763401;184;634769;-68
2022/03/02 01:01:58;;;;;;;63.75;33.90;;;;;;;;;;760837;184;627220;-68
2022/03/02 01:04:25;;;;;;;51.87;30.80;;;;;;;;;;754244;183;638068;-68
2022/03/02 01:06:51;;;;;;;65.40;32.27;;;;;;;;;;760169;183;625889;-68
2022/03/02 01:09:17;;;;;;;68.40;34.80;;;;;;;;;;756527;183;627033;-68
2022/03/02 01:11:43;;;;;;;74.20;33.93;;;;;;;;;;750974;184;648735;-68
2022/03/02 01:14:08;;;;;;;59.90;31.67;;;;;;;;;;750226;184;773934;-68
2022/03/02 01:16:34;;;;;;;62.73;33.07;;;;;;;;;;751479;186;626391;-68
2022/03/02 01:19:00;;;;;;;54.47;28.90;;;;;;;;;;754794;184;616445;-69
2022/03/02 01:21:26;;;;;;;68.53;35.50;;;;;;;;;;754109;184;628552;-68
2022/03/02 01:23:53;;;;;;;91.83;46.93;;;;;;;;;;756207;184;614835;-68
2022/03/02 01:26:18;;;;;;;98.20;46.53;;;;;;;;;;758982;184;620015;-68
2022/03/02 01:28:44;;;;;;;84.00;40.33;;;;;;;;;;755783;184;632527;-68
2022/03/02 01:31:11;;;;;;;73.33;36.10;;;;;;;;;;758381;184;623072;-68
2022/03/02 01:33:36;;;;;;;60.70;29.80;;;;;;;;;;754596;183;641316;-68
2022/03/02 01:36:02;;;;;;;74.03;30.40;;;;;;;;;;765210;183;635045;-68
2022/03/02 01:38:28;;;;;;;58.83;32.57;;;;;;;;;;754992;183;628924;-68
2022/03/02 01:40:53;;;;;;;69.30;31.33;;;;;;;;;;766019;183;631093;-67
2022/03/02 01:43:19;;;;;;;62.17;33.30;;;;;;;;;;765386;184;635424;-68
2022/03/02 01:45:45;;;;;;;71.33;35.43;;;;;;;;;;753518;184;619565;-67
2022/03/02 01:48:11;;;;;;;63.23;33.00;;;;;;;;;;763928;184;642011;-68
2022/03/02 01:50:37;;;;;;;66.70;32.13;;;;;;;;;;754609;183;619256;-67
2022/03/02 01:53:03;;;;;;;67.43;32.00;;;;;;;;;;752044;183;639247;-68
2022/03/02 01:55:28;;;;;;;55.80;29.13;;;;;;;;;;755767;183;615293;-68
2022/03/02 01:57:54;;;;;;;74.87;35.73;;;;;;;;;;758113;183;626324;-68
2022/03/02 02:00:20;;;;;;;62.03;27.93;;;;;;;;;;758535;184;621718;-68
2022/03/02 02:02:46;;;;;;;58.23;32.20;;;;;;;;;;759210;184;626759;-69
2022/03/02 02:05:12;;;;;;;77.37;36.00;;;;;;;;;;757058;184;632940;-68
2022/03/02 02:07:38;;;;;;;59.60;33.63;;;;;;;;;;757926;184;629620;-68
2022/03/02 02:10:06;;;;;;;62.90;30.50;;;;;;;;;;754330;184;641436;-68
2022/03/02 02:12:30;;;;;;;61.23;32.73;;;;;;;;;;755558;183;630118;-68
2022/03/02 02:14:56;;;;;;;56.27;30.17;;;;;;;;;;753959;184;625364;-68
2022/03/02 02:17:22;;;;;;;86.33;32.00;;;;;;;;;;758894;183;618798;-67
2022/03/02 02:19:47;;;;;;;52.00;26.90;;;;;;;;;;761578;184;632201;-68
2022/03/02 02:22:13;;;;;;;56.13;28.40;;;;;;;;;;753779;184;624581;-67
2022/03/02 02:24:39;;;;;;;61.90;28.93;;;;;;;;;;754719;183;626425;-68
2022/03/02 02:27:05;;;;;;;55.37;32.33;;;;;;;;;;765603;184;637181;-68
2022/03/02 02:29:31;;;;;;;55.60;30.13;;;;;;;;;;755304;184;637662;-68
2022/03/02 02:31:57;;;;;;;53.10;29.27;;;;;;;;;;753321;184;622733;-68
2022/03/02 02:34:23;;;;;;;57.90;29.80;;;;;;;;;;755490;184;636005;-68
2022/03/02 02:36:49;;;;;;;49.53;26.87;;;;;;;;;;762517;183;635062;-68
2022/03/02 02:39:15;;;;;;;61.33;30.65;;;;;;;;;;754886;183;619156;-68
2022/03/02 02:41:40;;;;;;;54.87;28.00;;;;;;;;;;765961;182;617850;-68
2022/03/02 02:44:06;;;;;;;51.70;27.37;;;;;;;;;;757907;184;625368;-68
2022/03/02 02:46:32;;;;;;;52.63;27.33;;;;;;;;;;755035;183;632596;-68
2022/03/02 02:48:58;;;;;;;60.70;28.63;;;;;;;;;;754256;184;636342;-67
2022/03/02 02:51:24;;;;;;;56.70;28.20;;;;;;;;;;758538;185;626037;-68
2022/03/02 02:53:50;;;;;;;61.30;26.50;;;;;;;;;;761973;183;627179;-68
2022/03/02 02:56:16;;;;;;;49.33;26.03;;;;;;;;;;753249;186;623493;-68
2022/03/02 02:58:42;;;;;;;62.07;28.33;;;;;;;;;;753630;183;864075;-68
2022/03/02 03:01:08;;;;;;;51.73;25.73;;;;;;;;;;751972;183;615687;-69
2022/03/02 03:03:33;;;;;;;53.55;25.48;;;;;;;;;;752699;183;647743;-68
2022/03/02 03:05:59;;;;;;;57.50;28.67;;;;;;;;;;758488;184;631015;-68
2022/03/02 03:08:25;;;;;;;74.90;29.80;;;;;;;;;;758471;185;625590;-68
2022/03/02 03:10:51;;;;;;;61.00;30.07;;;;;;;;;;752931;184;625143;-68
2022/03/02 03:13:17;;;;;;;58.07;27.97;;;;;;;;;;755349;184;631053;-68
2022/03/02 03:15:43;;;;;;;60.53;29.40;;;;;;;;;;767096;184;624307;-68
2022/03/02 03:18:09;;;;;;;63.20;28.43;;;;;;;;;;759006;183;626262;-68
2022/03/02 03:20:34;;;;;;;55.97;28.17;;;;;;;;;;754597;186;630170;-68
2022/03/02 03:23:00;;;;;;;60.57;28.80;;;;;;;;;;758356;185;618387;-66
2022/03/02 03:25:26;;;;;;;53.20;28.77;;;;;;;;;;753960;184;629246;-68
2022/03/02 03:27:52;;;;;;;58.43;29.00;;;;;;;;;;754279;184;671317;-68
2022/03/02 03:30:19;;;;;;;57.23;31.53;;;;;;;;;;754508;184;633751;-67
2022/03/02 03:32:44;;;;;;;61.60;32.27;;;;;;;;;;756176;186;624102;-68
2022/03/02 03:35:09;;;;;;;61.20;32.30;;;;;;;;;;747483;183;753722;-68
2022/03/02 03:37:35;;;;;;;69.13;31.40;;;;;;;;;;749633;184;635898;-67
2022/03/02 03:40:01;;;;;;;55.80;29.90;;;;;;;;;;752931;184;636006;-68
2022/03/02 03:42:27;;;;;;;59.07;32.20;;;;;;;;;;749213;184;634785;-67
2022/03/02 03:44:53;;;;;;;62.73;31.50;;;;;;;;;;753141;184;627413;-68
2022/03/02 03:47:19;;;;;;;64.93;33.93;;;;;;;;;;750845;184;631797;-67
2022/03/02 03:49:45;;;;;;;60.27;32.63;;;;;;;;;;758502;184;624729;-68
2022/03/02 03:52:11;;;;;;;60.40;33.43;;;;;;;;;;761176;181;627509;-68
2022/03/02 03:54:36;;;;;;;60.80;33.20;;;;;;;;;;755949;184;628679;-68
2022/03/02 03:57:02;;;;;;;68.33;36.03;;;;;;;;;;765581;183;653536;-68
2022/03/02 03:59:28;;;;;;;65.87;33.80;;;;;;;;;;756721;184;625662;-67
2022/03/02 04:01:54;;;;;;;61.20;32.50;;;;;;;;;;754989;184;627436;-67
2022/03/02 04:04:20;;;;;;;67.30;31.27;;;;;;;;;;761470;184;631178;-68
2022/03/02 04:06:46;;;;;;;63.00;32.83;;;;;;;;;;756197;184;635372;-68
2022/03/02 04:09:11;;;;;;;73.30;36.20;;;;;;;;;;757784;184;633428;-68
2022/03/02 04:11:38;;;;;;;70.03;37.97;;;;;;;;;;760751;185;719516;-67
2022/03/02 04:14:03;;;;;;;70.83;36.60;;;;;;;;;;755203;184;630375;-67
2022/03/02 04:16:29;;;;;;;72.83;35.73;;;;;;;;;;748739;184;635727;-67
2022/03/02 04:18:55;;;;;;;64.57;38.30;;;;;;;;;;765891;183;627867;-67
2022/03/02 04:21:21;;;;;;;74.17;41.87;;;;;;;;;;753988;184;626933;-67
2022/03/02 04:23:46;;;;;;;77.00;43.53;;;;;;;;;;763337;184;637710;-67
2022/03/02 04:26:12;;;;;;;87.23;43.03;;;;;;;;;;761152;184;624945;-66
2022/03/02 04:28:38;;;;;;;76.80;42.87;;;;;;;;;;762678;181;615339;-67
2022/03/02 04:31:04;;;;;;;86.50;46.77;;;;;;;;;;753125;184;630126;-67
2022/03/02 04:33:30;;;;;;;95.37;55.30;;;;;;;;;;748525;184;633424;-67
2022/03/02 04:35:56;;;;;;;90.30;46.27;;;;;;;;;;760596;184;626993;-67
2022/03/02 04:38:22;;;;;;;85.73;45.47;;;;;;;;;;757264;184;623953;-67
2022/03/02 04:40:48;;;;;;;79.00;47.73;;;;;;;;;;755588;184;617742;-67
2022/03/02 04:43:13;;;;;;;77.97;40.23;;;;;;;;;;758852;184;629718;-66
2022/03/02 04:45:39;;;;;;;84.63;39.87;;;;;;;;;;754382;184;634069;-67
2022/03/02 04:48:06;;;;;;;72.30;41.00;;;;;;;;;;751380;184;837178;-67
2022/03/02 04:50:31;;;;;;;92.10;44.97;;;;;;;;;;757731;184;634150;-67
2022/03/02 04:52:57;;;;;;;101.60;43.57;;;;;;;;;;750614;184;619139;-66
2022/03/02 04:55:23;;;;;;;108.10;55.13;;;;;;;;;;758083;184;632801;-68
2022/03/02 04:57:49;;;;;;;118.87;60.80;;;;;;;;;;757937;184;646191;-65
2022/03/02 05:00:15;;;;;;;135.13;62.80;;;;;;;;;;757840;185;628657;-67
2022/03/02 05:02:41;;;;;;;131.20;58.73;;;;;;;;;;757240;184;620960;-66
2022/03/02 05:05:07;;;;;;;132.73;61.80;;;;;;;;;;760287;183;671013;-67
2022/03/02 05:07:34;;;;;;;134.13;63.93;;;;;;;;;;758265;184;716552;-67
2022/03/02 05:09:59;;;;;;;111.70;53.10;;;;;;;;;;757656;184;622628;-67
2022/03/02 05:12:25;;;;;;;130.93;61.10;;;;;;;;;;754042;184;1047610;-67
2022/03/02 05:14:51;;;;;;;116.70;53.83;;;;;;;;;;761419;183;636029;-67
2022/03/02 05:17:17;;;;;;;115.90;55.63;;;;;;;;;;758314;183;633625;-67
2022/03/02 05:19:43;;;;;;;114.03;56.23;;;;;;;;;;757999;183;625057;-67
2022/03/02 05:22:09;;;;;;;117.73;53.83;;;;;;;;;;756064;184;630442;-67
2022/03/02 05:24:34;;;;;;;108.70;52.50;;;;;;;;;;763123;183;633032;-67
2022/03/02 05:27:00;;;;;;;101.17;53.10;;;;;;;;;;756942;183;627461;-66
2022/03/02 05:29:26;;;;;;;77.60;39.53;;;;;;;;;;756064;184;639530;-67
2022/03/02 05:31:52;;;;;;;101.93;43.27;;;;;;;;;;756839;184;624752;-67
2022/03/02 05:34:18;;;;;;;108.37;48.60;;;;;;;;;;756872;183;647335;-66
2022/03/02 05:36:43;;;;;;;108.85;53.13;;;;;;;;;;756018;184;638301;-65
2022/03/02 05:39:09;;;;;;;89.37;45.57;;;;;;;;;;759813;184;633754;-67
2022/03/02 05:41:35;;;;;;;87.67;44.33;;;;;;;;;;749066;184;653290;-67
2022/03/02 05:44:02;;;;;;;161.70;66.50;;;;;;;;;;756034;184;623491;-63
2022/03/02 05:46:27;;;;;;;83.50;40.63;;;;;;;;;;761597;184;672961;-67
2022/03/02 05:48:53;;;;;;;86.47;42.37;;;;;;;;;;753783;184;633850;-64
2022/03/02 05:51:19;;;;;;;83.57;41.23;;;;;;;;;;756572;184;623269;-66
2022/03/02 05:53:44;;;;;;;146.63;72.27;;;;;;;;;;760170;184;619060;-67
2022/03/02 05:56:10;;;;;;;147.70;65.80;;;;;;;;;;752991;184;629787;-67
2022/03/02 05:58:36;;;;;;;136.43;63.27;;;;;;;;;;750423;183;631397;-66
2022/03/02 06:01:02;;;;;;;216.87;93.37;;;;;;;;;;749295;185;635583;-67
2022/03/02 06:03:28;;;;;;;104.80;54.63;;;;;;;;;;759668;184;619187;-65
2022/03/02 06:05:54;;;;;;;124.20;58.67;;;;;;;;;;752569;185;624966;-67
2022/03/02 06:08:20;;;;;;;121.20;60.60;;;;;;;;;;752713;184;634638;-67
2022/03/02 06:10:45;;;;;;;140.67;60.97;;;;;;;;;;761345;184;621363;-66
2022/03/02 06:13:11;;;;;;;203.77;84.80;;;;;;;;;;754460;184;631367;-66
2022/03/02 06:15:37;;;;;;;185.33;90.50;;;;;;;;;;754858;182;632369;-67
2022/03/02 06:18:04;;;;;;;270.93;119.17;;;;;;;;;;759178;184;625273;-67
2022/03/02 06:20:30;;;;;;;204.73;86.63;;;;;;;;;;757734;183;630029;-66
2022/03/02 06:22:56;;;;;;;190.93;87.23;;;;;;;;;;758927;183;627236;-66
2022/03/02 06:25:22;;;;;;;153.50;73.10;;;;;;;;;;755577;183;627616;-67
2022/03/02 06:27:48;;;;;;;110.07;53.00;;;;;;;;;;760238;184;623056;-66
2022/03/02 06:30:13;;;;;;;112.83;54.47;;;;;;;;;;756602;184;632155;-67
2022/03/02 06:32:39;;;;;;;112.87;52.30;;;;;;;;;;756746;184;614957;-66
2022/03/02 06:35:06;;;;;;;89.63;48.00;;;;;;;;;;758256;184;614522;-66
2022/03/02 06:37:33;;;;;;;93.47;46.47;;;;;;;;;;756145;184;626131;-66
2022/03/02 06:39:57;;;;;;;95.17;47.47;;;;;;;;;;756392;184;626811;-67
2022/03/02 06:42:23;;;;;;;122.80;56.53;;;;;;;;;;754683;184;689629;-66
2022/03/02 06:44:52;;;;;;;90.20;45.93;;;;;;;;;;768247;179;620194;-67
2022/03/02 06:47:17;;;;;;;115.90;51.47;;;;;;;;;;754948;183;632494;-66
2022/03/02 06:49:46;;;;;;;113.33;55.97;;;;;;;;;;755794;184;625225;-67
2022/03/02 06:52:11;;;;;;;100.33;52.30;;;;;;;;;;759318;184;628039;-67
2022/03/02 06:54:37;;;;;;;90.33;46.23;;;;;;;;;;756550;184;636255;-67
2022/03/02 06:57:03;;;;;;;93.00;46.53;;;;;;;;;;757240;184;636030;-67
2022/03/02 06:59:31;;;;;;;66.53;36.77;;;;;;;;;;761484;184;625832;-66
2022/03/02 07:01:56;;;;;;;104.33;46.80;;;;;;;;;;753556;184;616756;-64
2022/03/02 07:04:22;;;;;;;99.07;50.70;;;;;;;;;;752979;184;637033;-64
2022/03/02 07:06:48;;;;;;;98.30;44.17;;;;;;;;;;755922;183;631770;-64
2022/03/02 07:09:14;;;;;;;98.70;46.23;;;;;;;;;;760187;184;635409;-63
2022/03/02 07:11:40;;;;;;;91.90;46.47;;;;;;;;;;755611;184;644960;-62
2022/03/02 07:14:06;;;;;;;93.67;47.70;;;;;;;;;;756156;184;634036;-62
2022/03/02 07:16:31;;;;;;;83.53;42.27;;;;;;;;;;758489;184;620266;-61
2022/03/02 07:18:57;;;;;;;88.17;42.70;;;;;;;;;;756098;184;619844;-61
2022/03/02 07:21:23;;;;;;;88.53;43.57;;;;;;;;;;759670;183;654785;-60
2022/03/02 07:23:54;;;;;;;88.77;44.00;;;;;;;;;;756096;184;625134;-61
2022/03/02 07:26:19;;;;;;;88.23;43.67;;;;;;;;;;761660;181;633109;-60
2022/03/02 07:28:44;;;;;;;103.00;43.50;;;;;;;;;;767374;182;628084;-60
2022/03/02 07:31:10;;;;;;;110.40;43.77;;;;;;;;;;758592;183;749061;-60
2022/03/02 07:33:36;;;;;;;99.20;47.37;;;;;;;;;;761526;184;630535;-60
2022/03/02 07:36:02;;;;;;;89.20;43.70;;;;;;;;;;758354;183;624914;-61
2022/03/02 07:38:28;;;;;;;92.80;42.97;;;;;;;;;;757830;183;624878;-61
2022/03/02 07:40:54;;;;;;;83.73;43.50;;;;;;;;;;761373;184;617687;-61
2022/03/02 07:43:20;;;;;;;84.47;39.87;;;;;;;;;;757666;184;626440;-61
2022/03/02 07:45:46;;;;;;;75.43;39.40;;;;;;;;;;745070;184;1699102;-61
2022/03/02 07:48:11;;;;;;;156.10;68.40;;;;;;;;;;757106;184;618630;-59
2022/03/02 07:50:37;;;;;;;105.73;50.77;;;;;;;;;;755588;183;624960;-59
2022/03/02 07:53:03;;;;;;;103.53;47.67;;;;;;;;;;757876;183;626164;-59
2022/03/02 07:55:29;;;;;;;88.30;47.10;;;;;;;;;;749049;183;639286;-60
2022/03/02 07:57:55;;;;;;;127.70;57.03;;;;;;;;;;752649;183;620310;-60
2022/03/02 08:00:21;;;;;;;90.50;43.97;;;;;;;;;;762380;184;634043;-60
2022/03/02 08:02:47;;;;;;;89.27;39.30;;;;;;;;;;755582;184;630321;-60
2022/03/02 08:05:13;;;;;;;95.73;42.10;;;;;;;;;;762480;183;626734;-61
2022/03/02 08:07:39;;;;;;;77.53;38.63;;;;;;;;;;754995;184;634708;-60
2022/03/02 08:10:05;;;;;;;82.67;39.27;;;;;;;;;;754909;184;630790;-61
2022/03/02 08:12:31;;;;;;;62.57;29.77;;;;;;;;;;757959;184;632333;-61
2022/03/02 08:14:57;;;;;;;68.93;35.83;;;;;;;;;;753842;184;658695;-61
2022/03/02 08:17:23;;;;;;;66.57;28.63;;;;;;;;;;757241;183;630003;-60
2022/03/02 08:19:49;;;;;;;115.37;53.07;;;;;;;;;;756303;184;627841;-60
2022/03/02 08:22:14;;;;;;;92.53;35.50;;;;;;;;;;759580;184;633619;-61
2022/03/02 08:24:42;;;;;;;115.33;52.90;;;;;;;;;;758256;184;822408;-60
2022/03/02 08:27:06;;;;;;;107.60;46.83;;;;;;;;;;757125;184;646625;-60
2022/03/02 08:29:32;;;;;;;64.23;38.10;;;;;;;;;;757671;184;625304;-61
2022/03/02 08:31:58;;;;;;;135.23;60.27;;;;;;;;;;754876;184;631293;-60
2022/03/02 08:34:24;;;;;;;105.87;49.50;;;;;;;;;;756262;183;628842;-61
2022/03/02 08:36:50;;;;;;;95.63;42.30;;;;;;;;;;761478;184;639773;-60
2022/03/02 08:39:15;;;;;;;77.30;36.17;;;;;;;;;;760197;181;696798;-60
2022/03/02 08:41:41;;;;;;;71.03;38.80;;;;;;;;;;757659;182;633482;-61
2022/03/02 08:44:07;;;;;;;83.03;42.47;;;;;;;;;;756218;184;619063;-60
2022/03/02 08:46:33;;;;;;;57.83;26.60;;;;;;;;;;773384;179;635752;-60
2022/03/02 08:48:59;;;;;;;57.90;24.20;;;;;;;;;;757929;183;633058;-60
2022/03/02 08:51:25;;;;;;;57.27;28.00;;;;;;;;;;761639;180;614560;-60
2022/03/02 08:53:50;;;;;;;65.60;27.57;;;;;;;;;;763986;184;639011;-60
2022/03/02 08:56:16;;;;;;;72.57;31.20;;;;;;;;;;751822;184;636009;-60
2022/03/02 08:58:42;;;;;;;52.40;27.57;;;;;;;;;;753459;183;630834;-60
2022/03/02 09:01:09;;;;;;;39.65;22.60;;;;;;;;;;754991;184;780177;-60
2022/03/02 09:03:34;;;;;;;69.97;31.07;;;;;;;;;;757826;184;635515;-59
2022/03/02 09:06:00;;;;;;;60.63;32.13;;;;;;;;;;755668;184;627304;-60
2022/03/02 09:08:26;;;;;;;64.83;32.50;;;;;;;;;;766102;184;628652;-59
2022/03/02 09:10:51;;;;;;;51.50;28.47;;;;;;;;;;758487;183;635190;-59
2022/03/02 09:13:17;;;;;;;47.53;26.70;;;;;;;;;;753305;184;632238;-58
2022/03/02 09:15:43;;;;;;;48.30;27.10;;;;;;;;;;752827;184;647079;-59
2022/03/02 09:18:10;;;;;;;39.93;21.90;;;;;;;;;;760850;184;617968;-59
2022/03/02 09:20:35;;;;;;;47.93;22.70;;;;;;;;;;754197;184;627801;-60
2022/03/02 09:23:01;;;;;;;62.53;30.10;;;;;;;;;;755980;184;616962;-60
2022/03/02 09:25:27;;;;;;;73.23;23.90;;;;;;;;;;762834;184;626227;-60
2022/03/02 09:27:53;;;;;;;53.13;29.00;;;;;;;;;;757845;184;648644;-60
2022/03/02 09:30:18;;;;;;;58.50;26.50;;;;;;;;;;754931;184;627523;-60
2022/03/02 09:32:44;;;;;;;62.13;26.67;;;;;;;;;;759191;184;631574;-60
2022/03/02 09:35:10;;;;;;;42.93;24.70;;;;;;;;;;755248;184;627037;-60
2022/03/02 09:37:36;;;;;;;59.13;26.53;;;;;;;;;;755718;184;717024;-60
2022/03/02 09:40:02;;;;;;;54.67;26.87;;;;;;;;;;757889;184;679848;-61
2022/03/02 09:42:32;;;;;;;52.10;20.80;;;;;;;;;;755074;184;628632;-61
2022/03/02 09:44:59;;;;;;;47.87;21.93;;;;;;;;;;756529;184;615136;-60
2022/03/02 09:47:25;;;;;;;23.10;13.00;;;;;;;;;;755472;184;633481;-60
2022/03/02 09:49:52;;;;;;;54.57;21.40;;;;;;;;;;757927;184;617296;-60
2022/03/02 09:52:19;;;;;;;43.90;20.50;;;;;;;;;;756355;184;635186;-60
2022/03/02 09:54:43;;;;;;;25.23;14.07;;;;;;;;;;756169;184;637260;-60
2022/03/02 09:57:10;;;;;;;22.08;13.57;;;;;;;;;;756363;183;624836;-58
2022/03/02 09:59:36;;;;;;;21.90;12.30;;;;;;;;;;761855;180;634996;-61
2022/03/02 10:02:01;;;;;;;33.27;12.93;;;;;;;;;;765720;183;626964;-60
2022/03/02 10:04:27;;;;;;;38.43;17.70;;;;;;;;;;755988;183;640248;-61
2022/03/02 10:07:26;;;;;;;44.60;19.60;;;;;;;;;;770113;184;626977;-61
2022/03/02 10:09:22;;;;;;;32.27;16.73;;;;;;;;;;751999;184;634846;-61
2022/03/02 10:11:48;;;;;;;26.37;13.20;;;;;;;;;;760246;184;627439;-60
2022/03/02 10:14:13;;;;;;;40.00;18.40;;;;;;;;;;756563;184;663679;-61
2022/03/02 10:16:41;;;;;;;33.23;18.03;;;;;;;;;;759851;184;628663;-59
2022/03/02 10:19:07;;;;;;;33.57;19.37;;;;;;;;;;752575;183;623502;-60
2022/03/02 10:21:33;;;;;;;31.80;14.30;;;;;;;;;;756498;184;617132;-60
2022/03/02 10:23:59;;;;;;;30.83;14.90;;;;;;;;;;763080;180;623126;-61
2022/03/02 10:26:25;;;;;;;31.97;15.00;;;;;;;;;;754157;183;626963;-60
2022/03/02 10:28:52;;;;;;;35.63;18.77;;;;;;;;;;763072;184;630221;-60
2022/03/02 10:31:24;;;;;;;38.00;17.50;;;;;;;;;;757768;184;625104;-61
2022/03/02 10:33:52;;;;;;;39.47;17.60;;;;;;;;;;752985;184;626084;-59
2022/03/02 10:36:17;;;;;;;34.90;15.33;;;;;;;;;;751068;184;625187;-62
2022/03/02 10:38:47;;;;;;;24.73;11.83;;;;;;;;;;756809;184;630022;-61
2022/03/02 10:41:13;;;;;;;44.63;16.27;;;;;;;;;;756976;184;622008;-61
2022/03/02 10:43:40;;;;;;;40.20;12.97;;;;;;;;;;750217;184;774377;-60
2022/03/02 10:46:06;;;;;;;22.73;14.03;;;;;;;;;;758153;184;618767;-60
2022/03/02 10:48:38;;;;;;;31.10;14.50;;;;;;;;;;756221;184;617770;-60
2022/03/02 10:51:02;;;;;;;20.53;11.77;;;;;;;;;;752555;184;624530;-60
2022/03/02 10:53:27;;;;;;;38.37;16.57;;;;;;;;;;748304;184;629237;-61
2022/03/02 10:55:53;;;;;;;21.03;12.60;;;;;;;;;;750979;184;636513;-61
2022/03/02 10:58:19;;;;;;;31.10;17.77;;;;;;;;;;765886;184;618072;-60
2022/03/02 11:00:45;;;;;;;42.90;22.43;;;;;;;;;;755884;184;616967;-61
2022/03/02 11:03:11;;;;;;;40.80;17.60;;;;;;;;;;756907;184;644784;-61
2022/03/02 11:05:37;;;;;;;31.50;17.80;;;;;;;;;;759168;183;640158;-61
2022/03/02 11:08:02;;;;;;;31.30;18.03;;;;;;;;;;756856;185;635014;-60
2022/03/02 11:10:33;;;;;;;53.07;26.27;;;;;;;;;;756756;183;638231;-62
2022/03/02 11:12:57;;;;;;;36.23;20.00;;;;;;;;;;754159;184;645050;-61
2022/03/02 11:15:22;;;;;;;19.43;11.90;;;;;;;;;;776092;179;630019;-61
2022/03/02 11:17:51;;;;;;;45.47;24.87;;;;;;;;;;751043;183;629783;-60
2022/03/02 11:20:16;;;;;;;75.73;33.77;;;;;;;;;;757637;183;624804;-59
2022/03/02 11:22:42;;;;;;;41.43;17.90;;;;;;;;;;760591;184;627577;-59
2022/03/02 11:25:08;;;;;;;37.13;21.03;;;;;;;;;;755232;183;626411;-60
2022/03/02 11:27:36;;;;;;;31.93;19.40;;;;;;;;;;754491;184;635081;-60
2022/03/02 11:30:17;;;;;;;30.77;16.70;;;;;;;;;;758924;183;642143;-60
2022/03/02 11:32:42;;;;;;;29.37;14.73;;;;;;;;;;761573;183;652363;-60
2022/03/02 11:35:09;;;;;;;37.87;16.33;;;;;;;;;;757071;183;629492;-61
2022/03/02 11:37:35;;;;;;;32.90;18.40;;;;;;;;;;757261;183;627451;-60
2022/03/02 11:40:01;;;;;;;29.87;16.47;;;;;;;;;;757025;183;649167;-60
2022/03/02 11:42:27;;;;;;;30.43;17.40;;;;;;;;;;763284;183;634134;-60
2022/03/02 11:44:53;;;;;;;21.03;11.40;;;;;;;;;;761764;183;635140;-59
2022/03/02 11:47:20;;;;;;;33.53;20.50;;;;;;;;;;754773;184;625278;-59
2022/03/02 11:49:46;;;;;;;34.23;16.33;;;;;;;;;;757478;183;620811;-59
2022/03/02 11:52:14;;;;;;;27.60;12.87;;;;;;;;;;758002;184;638039;-60
2022/03/02 11:54:43;;;;;;;37.27;18.40;;;;;;;;;;755596;184;652742;-59
2022/03/02 11:57:09;;;;;;;38.77;19.30;;;;;;;;;;755029;184;617857;-59
2022/03/02 11:59:37;;;;;;;37.87;16.57;;;;;;;;;;758766;184;615014;-59
2022/03/02 12:02:01;;;;;;;31.60;14.23;;;;;;;;;;754162;183;625383;-59
2022/03/02 12:04:26;;;;;;;32.17;15.33;;;;;;;;;;755852;184;630853;-59
2022/03/02 12:06:53;;;;;;;30.03;16.20;;;;;;;;;;759065;184;629191;-59
2022/03/02 12:09:22;;;;;;;43.60;20.40;;;;;;;;;;755026;184;634453;-60
2022/03/02 12:11:48;;;;;;;44.87;17.67;;;;;;;;;;757244;184;635844;-59
2022/03/02 12:14:15;;;;;;;37.83;18.55;;;;;;;;;;761163;184;628943;-60
2022/03/02 12:16:41;;;;;;;34.27;15.50;;;;;;;;;;758866;183;625089;-60
2022/03/02 12:19:07;;;;;;;30.67;15.33;;;;;;;;;;756672;183;620554;-59
2022/03/02 12:21:33;;;;;;;28.87;13.07;;;;;;;;;;754297;183;653687;-59
2022/03/02 12:24:00;;;;;;;55.83;23.87;;;;;;;;;;758262;183;717584;-60
2022/03/02 12:26:25;;;;;;;31.67;15.50;;;;;;;;;;757413;183;642787;-59
2022/03/02 12:28:53;;;;;;;46.80;26.27;;;;;;;;;;755809;184;630029;-60
2022/03/02 12:31:19;;;;;;;29.60;13.13;;;;;;;;;;760858;183;618845;-59
2022/03/02 12:33:45;;;;;;;26.43;16.90;;;;;;;;;;749485;183;627681;-60
2022/03/02 12:36:11;;;;;;;30.83;13.97;;;;;;;;;;751694;183;1301013;-60
2022/03/02 12:38:37;;;;;;;42.70;17.67;;;;;;;;;;756397;184;633667;-60
2022/03/02 12:41:03;;;;;;;29.53;17.27;;;;;;;;;;765390;181;627233;-59
2022/03/02 12:43:29;;;;;;;20.97;10.07;;;;;;;;;;754869;184;629024;-59
2022/03/02 12:45:55;;;;;;;20.17;10.60;;;;;;;;;;751976;184;638822;-60
2022/03/02 12:48:20;;;;;;;33.13;17.10;;;;;;;;;;757089;184;623435;-59
2022/03/02 12:50:46;;;;;;;36.70;19.40;;;;;;;;;;755233;184;645979;-60
2022/03/02 12:53:12;;;;;;;31.07;18.50;;;;;;;;;;751806;184;684266;-60
2022/03/02 12:55:39;;;;;;;37.10;19.17;;;;;;;;;;758792;184;618085;-59
2022/03/02 12:58:04;;;;;;;29.87;18.47;;;;;;;;;;755968;184;616909;-60
2022/03/02 13:00:30;;;;;;;35.53;18.27;;;;;;;;;;753508;184;644357;-60
2022/03/02 13:02:55;;;;;;;36.70;17.20;;;;;;;;;;758747;184;608987;-59
2022/03/02 13:05:25;;;;;;;38.20;18.87;;;;;;;;;;753573;184;633023;-59
2022/03/02 13:08:06;;;;;;;27.77;15.10;;;;;;;;;;754487;184;636011;-59
2022/03/02 13:10:32;;;;;;;27.20;12.90;;;;;;;;;;754586;184;651852;-59
2022/03/02 13:12:58;;;;;;;37.50;20.10;;;;;;;;;;753107;184;629035;-60
2022/03/02 13:15:29;;;;;;;25.93;11.00;;;;;;;;;;758242;184;615119;-59
2022/03/02 13:18:14;;;;;;;43.53;20.03;;;;;;;;;;757006;184;634426;-59
2022/03/02 13:20:41;;;;;;;55.43;26.60;;;;;;;;;;756512;184;625088;-59
2022/03/02 13:23:10;;;;;;;50.50;21.80;;;;;;;;;;757278;184;618813;-59
2022/03/02 13:25:36;;;;;;;46.43;23.60;;;;;;;;;;754328;183;626350;-60
2022/03/02 13:28:11;;;;;;;62.30;28.83;;;;;;;;;;762808;183;630740;-59
2022/03/02 13:30:36;;;;;;;45.13;23.27;;;;;;;;;;753571;184;615320;-59
2022/03/02 13:33:02;;;;;;;128.80;49.27;;;;;;;;;;752389;183;638335;-59
2022/03/02 13:35:30;;;;;;;66.90;32.50;;;;;;;;;;755945;184;638016;-59
2022/03/02 13:37:56;;;;;;;48.73;24.67;;;;;;;;;;760532;184;614790;-59
2022/03/02 13:40:23;;;;;;;60.03;29.40;;;;;;;;;;756615;184;626018;-59
2022/03/02 13:42:50;;;;;;;64.13;32.20;;;;;;;;;;752866;184;632408;-60
2022/03/02 13:45:15;;;;;;;65.63;32.00;;;;;;;;;;756591;184;625667;-60
2022/03/02 13:47:41;;;;;;;62.67;31.37;;;;;;;;;;757211;184;638957;-59
2022/03/02 13:50:07;;;;;;;86.97;37.67;;;;;;;;;;758419;184;629686;-59
2022/03/02 13:52:48;;;;;;;72.03;33.20;;;;;;;;;;757136;184;624439;-60
2022/03/02 13:55:29;;;;;;;52.70;19.70;;;;;;;;;;760505;183;623942;-60